createdAt,value
2022-09-16T08:32:14.031Z,26.50
2022-09-16T08:35:00.334Z,25.86
2022-09-16T08:37:50.159Z,26.50
2022-09-16T08:40:37.514Z,25.43
2022-09-16T08:43:37.346Z,26.33
2022-09-16T08:46:51.915Z,26.37
2022-09-16T08:49:46.511Z,26.71
2022-09-16T08:52:37.878Z,26.04
2022-09-16T08:55:38.113Z,26.60
2022-09-16T08:58:42.798Z,26.44
2022-09-16T09:01:52.002Z,26.15
2022-09-16T09:04:38.939Z,25.59
2022-09-16T09:07:52.347Z,25.60
2022-09-16T09:11:00.171Z,26.49
2022-09-16T09:14:07.977Z,26.56
2022-09-16T09:18:12.757Z,26.80
2022-09-16T09:23:42.918Z,27.16
2022-09-16T09:26:35.337Z,27.39
2022-09-16T09:29:20.131Z,26.65
2022-09-16T09:32:05.563Z,27.93
2022-09-16T09:34:41.916Z,27.95
2022-09-16T09:37:37.950Z,27.79
2022-09-16T09:40:38.665Z,27.75
2022-09-16T09:43:24.475Z,27.69
2022-09-16T09:45:54.622Z,26.90
2022-09-16T09:48:26.699Z,26.48
2022-09-16T09:50:54.120Z,25.98
2022-09-16T09:53:33.739Z,26.10
2022-09-16T09:56:31.839Z,25.71
2022-09-16T09:59:25.532Z,26.36
2022-09-16T10:01:57.235Z,26.45
2022-09-16T10:04:25.097Z,26.26
2022-09-16T10:06:55.262Z,25.98
2022-09-16T10:09:23.598Z,24.46
2022-09-16T10:11:53.601Z,25.13
2022-09-16T10:14:31.899Z,24.83
2022-09-16T10:17:05.442Z,23.21
2022-09-16T10:19:49.142Z,22.93
2022-09-16T10:22:26.777Z,22.13
2022-09-16T10:25:02.797Z,21.68
2022-09-16T10:27:32.650Z,21.99
2022-09-16T10:30:20.530Z,20.56
2022-09-16T10:32:56.446Z,21.05
2022-09-16T10:35:29.054Z,20.36
2022-09-16T10:38:03.156Z,19.09
2022-09-16T10:40:31.464Z,18.82
2022-09-16T10:43:14.279Z,18.47
2022-09-16T10:45:48.068Z,19.22
2022-09-16T10:48:19.300Z,18.84
2022-09-16T10:51:04.815Z,17.88
2022-09-16T10:53:39.110Z,19.38
2022-09-16T10:56:18.323Z,18.91
2022-09-16T10:58:45.519Z,18.53
2022-09-16T11:01:37.478Z,19.51
2022-09-16T11:04:20.501Z,18.69
2022-09-16T11:07:11.452Z,19.48
2022-09-16T11:10:14.879Z,20.24
2022-09-16T11:13:18.219Z,19.14
2022-09-16T11:16:06.709Z,20.02
2022-09-16T11:18:52.956Z,19.64
2022-09-16T11:21:27.119Z,20.23
2022-09-16T11:23:54.099Z,21.45
2022-09-16T11:26:39.128Z,21.29
2022-09-16T11:29:27.251Z,21.10
2022-09-16T11:31:54.858Z,21.62
2022-09-16T11:34:43.656Z,22.20
2022-09-16T11:37:10.647Z,22.04
2022-09-16T11:39:56.789Z,22.37
2022-09-16T11:42:55.570Z,22.41
2022-09-16T11:45:50.382Z,23.26
2022-09-16T11:48:53.851Z,23.08
2022-09-16T11:51:56.199Z,23.47
2022-09-16T11:54:41.740Z,24.03
2022-09-16T11:57:17.642Z,23.94
2022-09-16T11:59:56.499Z,24.41
2022-09-16T12:02:29.956Z,24.62
2022-09-16T12:05:27.481Z,24.46
2022-09-16T12:08:07.177Z,23.69
2022-09-16T12:10:47.161Z,24.39
2022-09-16T12:13:27.568Z,24.40
2022-09-16T12:16:02.959Z,24.51
2022-09-16T12:18:29.959Z,25.14
2022-09-16T12:21:16.900Z,24.08
2022-09-16T12:23:49.968Z,24.33
2022-09-16T12:26:41.504Z,24.35
2022-09-16T12:29:14.472Z,22.61
2022-09-16T12:31:47.333Z,23.46
2022-09-16T12:34:20.144Z,22.67
2022-09-16T12:36:54.408Z,22.36
2022-09-16T12:39:21.651Z,22.71
2022-09-16T12:42:16.410Z,22.85
2022-09-16T12:45:23.689Z,22.68
2022-09-16T12:48:18.369Z,22.73
2022-09-16T12:50:45.443Z,22.58
2022-09-16T12:53:41.838Z,22.53
2022-09-16T12:56:35.122Z,22.17
2022-09-16T12:59:11.559Z,21.29
2022-09-16T13:01:45.079Z,21.94
2022-09-16T13:04:21.240Z,21.62
2022-09-16T13:06:54.412Z,20.88
2022-09-16T13:09:25.771Z,21.69
2022-09-16T13:15:01.978Z,21.31
2022-09-16T13:17:40.293Z,19.45
2022-09-16T13:20:16.636Z,21.12
2022-09-16T13:23:17.732Z,19.81
2022-09-16T13:25:50.443Z,20.89
2022-09-16T13:28:37.770Z,20.51
2022-09-16T13:31:13.719Z,20.65
2022-09-16T13:33:49.519Z,20.24
2022-09-16T13:36:32.847Z,19.77
2022-09-16T13:39:06.264Z,20.71
2022-09-16T13:41:37.690Z,20.96
2022-09-16T13:44:38.807Z,20.97
2022-09-16T13:47:11.617Z,21.29
2022-09-16T13:50:01.362Z,21.22
2022-09-16T13:52:36.450Z,21.50
2022-09-16T13:55:19.976Z,21.61
2022-09-16T13:57:55.477Z,21.86
2022-09-16T14:00:25.398Z,21.86
2022-09-16T14:03:18.053Z,21.99
2022-09-16T14:06:22.241Z,21.95
2022-09-16T14:09:21.527Z,21.93
2022-09-16T14:12:07.686Z,21.78
2022-09-16T14:14:46.776Z,20.66
2022-09-16T14:17:22.652Z,20.68
2022-09-16T14:19:53.784Z,20.94
2022-09-16T14:22:22.046Z,20.94
2022-09-16T14:24:56.451Z,20.89
2022-09-16T14:27:35.059Z,20.94
2022-09-16T14:30:05.867Z,20.88
2022-09-16T14:32:36.582Z,20.74
2022-09-16T14:35:18.600Z,20.59
2022-09-16T14:37:48.295Z,20.76
2022-09-16T14:40:19.069Z,20.69
2022-09-16T14:43:00.419Z,20.64
2022-09-16T14:45:29.249Z,20.52
2022-09-16T14:47:59.203Z,19.84
2022-09-16T14:50:36.932Z,18.88
2022-09-16T14:53:26.876Z,20.81
2022-09-16T14:56:00.960Z,19.91
2022-09-16T14:58:32.053Z,19.74
2022-09-16T15:01:08.973Z,19.75
2022-09-16T15:03:58.143Z,19.43
2022-09-16T15:06:33.976Z,19.02
2022-09-16T15:09:06.561Z,19.07
2022-09-16T15:11:47.926Z,19.15
2022-09-16T15:14:16.997Z,18.22
2022-09-16T15:16:49.004Z,19.14
2022-09-16T15:19:25.580Z,19.04
2022-09-16T15:21:53.541Z,18.86
2022-09-16T15:24:27.804Z,20.35
2022-09-16T15:26:56.309Z,19.39
2022-09-16T15:29:23.208Z,20.58
2022-09-16T15:31:51.170Z,20.50
2022-09-16T15:34:18.223Z,20.25
2022-09-16T15:36:47.943Z,20.21
2022-09-16T15:39:32.167Z,19.97
2022-09-16T15:42:22.131Z,19.99
2022-09-16T15:45:00.725Z,20.05
2022-09-16T15:47:38.423Z,19.92
2022-09-16T15:50:13.797Z,18.47
2022-09-16T15:53:07.533Z,19.77
2022-09-16T15:55:42.122Z,19.11
2022-09-16T15:58:13.689Z,18.64
2022-09-16T16:01:04.988Z,19.90
2022-09-16T16:03:56.132Z,19.70
2022-09-16T16:06:50.413Z,19.69
2022-09-16T16:09:48.280Z,18.57
2022-09-16T16:12:17.414Z,19.67
2022-09-16T16:14:44.773Z,19.76
2022-09-16T16:17:15.231Z,19.74
2022-09-16T16:19:43.649Z,18.75
2022-09-16T16:22:11.133Z,19.81
2022-09-16T16:24:39.053Z,19.80
2022-09-16T16:27:07.122Z,19.69
2022-09-16T16:29:34.443Z,18.67
2022-09-16T16:32:07.653Z,17.82
2022-09-16T16:34:37.406Z,18.08
2022-09-16T16:37:05.653Z,18.89
2022-09-16T16:39:32.728Z,17.68
2022-09-16T16:42:00.014Z,17.69
2022-09-16T16:44:27.087Z,17.35
2022-09-16T16:46:55.721Z,18.46
2022-09-16T16:49:23.777Z,16.60
2022-09-16T16:51:52.079Z,16.87
2022-09-16T16:54:19.706Z,18.07
2022-09-16T16:56:47.253Z,17.00
2022-09-16T16:59:15.304Z,17.00
2022-09-16T17:01:47.878Z,17.83
2022-09-16T17:04:15.927Z,17.09
2022-09-16T17:06:43.487Z,17.72
2022-09-16T17:09:15.718Z,17.11
2022-09-16T17:12:00.501Z,17.74
2022-09-16T17:14:30.050Z,18.15
2022-09-16T17:16:57.771Z,16.86
2022-09-16T17:19:27.040Z,17.94
2022-09-16T17:21:54.942Z,18.01
2022-09-16T17:24:22.532Z,16.46
2022-09-16T17:26:50.258Z,17.00
2022-09-16T17:29:17.573Z,17.93
2022-09-16T17:31:45.005Z,17.02
2022-09-16T17:34:13.914Z,18.08
2022-09-16T17:36:43.643Z,17.16
2022-09-16T17:39:14.087Z,18.15
2022-09-16T17:41:42.442Z,16.21
2022-09-16T17:44:11.764Z,17.77
2022-09-16T17:46:39.924Z,17.62
2022-09-16T17:52:01.620Z,14.97
2022-09-16T17:54:33.091Z,15.11
2022-09-16T17:57:08.661Z,17.26
2022-09-16T17:59:43.087Z,15.76
2022-09-16T18:05:30.316Z,16.17
2022-09-16T18:08:09.783Z,18.06
2022-09-16T18:10:41.520Z,15.59
2022-09-16T18:13:14.175Z,16.85
2022-09-16T18:15:55.690Z,15.94
2022-09-16T18:18:26.238Z,17.19
2022-09-16T18:21:09.407Z,14.82
2022-09-16T18:26:23.564Z,16.47
2022-09-16T18:29:09.595Z,16.50
2022-09-16T18:31:39.331Z,16.57
2022-09-16T18:34:23.999Z,16.53
2022-09-16T18:37:17.741Z,16.33
2022-09-16T18:39:56.663Z,14.10
2022-09-16T18:45:41.467Z,15.69
2022-09-16T18:51:07.419Z,16.98
2022-09-16T19:00:24.768Z,14.91
2022-09-16T19:03:25.886Z,17.97
2022-09-16T19:06:07.741Z,16.44
2022-09-16T19:09:03.502Z,15.95
2022-09-16T19:11:47.520Z,17.05
2022-09-16T19:17:36.315Z,16.66
2022-09-16T19:20:15.596Z,17.76
2022-09-16T19:22:56.524Z,16.98
2022-09-16T19:25:26.974Z,16.24
2022-09-16T19:28:00.682Z,17.55
2022-09-16T19:31:17.647Z,17.21
2022-09-16T19:33:29.655Z,15.80
2022-09-16T19:35:58.166Z,16.12
2022-09-16T19:38:35.278Z,16.17
2022-09-16T19:41:52.253Z,17.68
2022-09-16T19:44:15.650Z,17.73
2022-09-16T19:46:45.327Z,17.25
2022-09-16T19:49:32.023Z,17.57
2022-09-16T19:52:13.969Z,16.49
2022-09-16T19:54:43.169Z,15.79
2022-09-16T19:57:39.963Z,15.35
2022-09-16T20:00:16.726Z,14.47
2022-09-16T20:02:57.963Z,15.11
2022-09-16T20:05:31.480Z,15.06
2022-09-16T20:09:42.682Z,15.11
2022-09-16T20:11:39.295Z,17.22
2022-09-16T20:14:26.154Z,14.75
2022-09-16T20:17:14.765Z,14.09
2022-09-16T20:20:05.281Z,13.73
2022-09-16T20:23:23.575Z,15.91
2022-09-16T20:26:32.357Z,14.12
2022-09-16T20:29:18.816Z,15.30
2022-09-16T20:35:28.301Z,13.64
2022-09-16T20:38:33.288Z,15.15
2022-09-16T20:44:11.945Z,15.68
2022-09-16T21:06:35.716Z,16.53
2022-09-16T21:12:29.517Z,14.87
2022-09-16T21:15:03.523Z,15.05
2022-09-16T21:17:42.408Z,14.78
2022-09-16T21:20:20.813Z,14.11
2022-09-16T21:23:24.684Z,13.22
2022-09-16T21:26:03.730Z,13.95
2022-09-16T21:28:42.817Z,16.65
2022-09-16T21:31:19.691Z,13.98
2022-09-16T21:37:22.851Z,14.94
2022-09-16T21:40:07.100Z,15.62
2022-09-16T21:43:06.761Z,12.64
2022-09-16T21:49:02.935Z,13.41
2022-09-16T23:18:00.048Z,13.95
2022-09-16T23:20:42.971Z,15.83
2022-09-16T23:30:08.330Z,11.65
2022-09-16T23:33:52.777Z,15.72
